Time;durP1;ratioP1;P1;durP2;ratioP2;P2;SDS_P1;SDS_P2;PMS_P1;PMS_P2;Temp;Humidity;BMP_temperature;BMP_pressure;BME280_temperature;BME280_humidity;BME280_pressure;Samples;Min_cycle;Max_cycle;Signal;HPM_P1;HPM_P2
2022/04/29 00:00:55;;;;;;;8.55;2.80;;;;;;;6.75;100.00;102073.63;6011739;29;20041;-91
2022/04/29 00:03:57;;;;;;;8.93;3.03;;;;;;;6.65;100.00;102067.13;6018446;29;20509;-91
2022/04/29 00:06:59;;;;;;;16.55;3.65;;;;;;;6.61;100.00;102068.16;6014133;29;20089;-90
2022/04/29 00:10:02;;;;;;;6.88;2.60;;;;;;;6.50;100.00;102070.28;6002665;29;20040;-91
2022/04/29 00:13:06;;;;;;;8.20;2.97;;;;;;;6.49;100.00;102060.91;6020155;29;20928;-91
2022/04/29 00:16:07;;;;;;;6.30;3.25;;;;;;;6.43;100.00;102069.66;6012820;29;20045;-91
2022/04/29 00:19:09;;;;;;;8.05;3.20;;;;;;;6.46;100.00;102061.88;6008755;29;20712;-91
2022/04/29 00:22:11;;;;;;;6.68;3.22;;;;;;;6.41;100.00;102058.59;6010261;29;20042;-90
2022/04/29 00:25:13;;;;;;;11.30;4.43;;;;;;;6.40;100.00;102050.03;6002770;29;20132;-91
2022/04/29 00:28:15;;;;;;;9.57;3.40;;;;;;;6.40;100.00;102059.50;5993709;29;20045;-91
2022/04/29 00:31:17;;;;;;;5.72;2.85;;;;;;;6.44;100.00;102051.63;6017811;29;20050;-91
2022/04/29 00:34:19;;;;;;;5.55;3.03;;;;;;;6.33;100.00;102060.63;6002055;29;20576;-91
2022/04/29 00:37:21;;;;;;;6.20;3.53;;;;;;;6.31;100.00;102063.25;6018731;29;20089;-91
2022/04/29 00:40:26;;;;;;;5.45;3.30;;;;;;;6.29;100.00;102061.63;6000856;29;20061;-91
2022/04/29 00:43:28;;;;;;;7.95;3.28;;;;;;;6.27;100.00;102056.53;5996443;29;20054;-91
2022/04/29 00:46:41;;;;;;;9.00;3.25;;;;;;;6.25;100.00;102053.19;6001405;29;20070;-91
2022/04/29 00:49:44;;;;;;;9.35;3.35;;;;;;;6.28;100.00;102047.91;6001407;29;20057;-91
2022/04/29 00:52:50;;;;;;;8.88;3.40;;;;;;;6.33;100.00;102045.19;5991450;29;20140;-88
2022/04/29 00:55:55;;;;;;;8.05;3.08;;;;;;;6.24;100.00;102044.63;6001771;29;20053;-88
2022/04/29 00:59:09;;;;;;;9.48;3.15;;;;;;;6.16;100.00;102035.50;6012730;29;20053;-89
2022/04/29 01:02:11;;;;;;;8.10;3.47;;;;;;;6.09;100.00;102027.19;5989649;29;20201;-88
2022/04/29 01:05:16;;;;;;;8.10;3.03;;;;;;;6.10;100.00;102033.19;6008888;29;20757;-88
2022/04/29 01:08:18;;;;;;;8.35;3.40;;;;;;;6.06;100.00;102029.03;6007075;29;20042;-88
2022/04/29 01:11:24;;;;;;;7.88;3.40;;;;;;;6.09;100.00;102026.34;6019343;29;20074;-88
2022/04/29 01:14:26;;;;;;;7.95;3.85;;;;;;;6.10;100.00;102022.88;6002181;29;20743;-88
2022/04/29 01:17:30;;;;;;;6.97;3.30;;;;;;;6.13;100.00;102028.75;6003899;29;20198;-89
2022/04/29 01:20:33;;;;;;;7.53;3.83;;;;;;;6.13;100.00;102025.34;6015140;29;20045;-89
2022/04/29 01:23:35;;;;;;;7.32;3.28;;;;;;;6.06;100.00;102022.16;6006908;29;20105;-88
2022/04/29 01:26:37;;;;;;;5.13;3.10;;;;;;;6.04;100.00;102029.94;5992816;29;20571;-88
2022/04/29 01:29:50;;;;;;;9.38;3.47;;;;;;;6.04;100.00;102031.66;6012662;29;20831;-88
2022/04/29 01:32:55;;;;;;;6.47;3.15;;;;;;;6.02;100.00;102025.75;6015548;29;20052;-88
2022/04/29 01:35:58;;;;;;;6.68;3.40;;;;;;;5.99;100.00;102020.72;5996423;29;20416;-89
2022/04/29 01:38:59;;;;;;;10.90;3.78;;;;;;;6.01;100.00;102013.75;6009192;29;20041;-89
2022/04/29 01:42:02;;;;;;;6.53;3.72;;;;;;;6.03;100.00;102019.69;6021630;29;20483;-89
2022/04/29 01:45:05;;;;;;;8.48;3.17;;;;;;;6.02;100.00;102023.16;6011840;29;20053;-88
2022/04/29 01:48:21;;;;;;;7.55;3.72;;;;;;;5.98;100.00;102009.56;6001927;29;20515;-88
2022/04/29 01:51:31;;;;;;;;;;;;;;;5.96;100.00;102008.81;6006575;29;20492;-88
2022/04/29 01:54:33;;;;;;;6.55;4.03;;;;;;;5.99;100.00;102005.28;6014248;29;19927;-88
2022/04/29 01:57:37;;;;;;;12.82;3.63;;;;;;;6.00;100.00;102007.78;5995244;29;20057;-88
2022/04/29 02:00:39;;;;;;;8.30;3.63;;;;;;;6.00;100.00;102014.66;6013204;29;20054;-88
2022/04/29 02:03:41;;;;;;;8.50;3.90;;;;;;;6.04;100.00;102001.66;5983998;29;20527;-88
2022/04/29 02:06:44;;;;;;;9.32;3.78;;;;;;;6.02;100.00;101984.63;5989636;29;20053;-88
2022/04/29 02:09:46;;;;;;;9.45;3.95;;;;;;;6.04;100.00;101987.97;6002819;29;20058;-88
2022/04/29 02:12:50;;;;;;;8.55;3.85;;;;;;;6.03;100.00;101991.41;6000609;29;20056;-88
2022/04/29 02:16:13;;;;;;;5.75;3.25;;;;;;;6.06;100.00;101985.31;5997208;29;20110;-88
2022/04/29 02:19:17;;;;;;;9.18;3.25;;;;;;;5.98;100.00;101977.91;5989134;29;20121;-88
2022/04/29 02:22:19;;;;;;;8.90;4.32;;;;;;;5.90;100.00;101985.03;6000027;29;20053;-87
2022/04/29 02:25:21;;;;;;;6.32;3.75;;;;;;;5.87;100.00;101980.84;6000365;29;20109;-88
2022/04/29 02:28:23;;;;;;;8.50;3.67;;;;;;;5.93;100.00;101985.75;6005950;29;20543;-88
2022/04/29 02:31:25;;;;;;;9.95;3.83;;;;;;;5.84;100.00;101983.53;5996230;29;20050;-88
2022/04/29 02:34:27;;;;;;;7.22;4.10;;;;;;;5.80;100.00;101992.22;6002404;29;20500;-88
2022/04/29 02:37:29;;;;;;;11.32;4.43;;;;;;;5.83;100.00;101992.09;6010389;29;20042;-88
2022/04/29 02:40:32;;;;;;;4.82;3.33;;;;;;;5.78;100.00;101986.28;5985414;29;20512;-88
2022/04/29 02:43:34;;;;;;;11.38;4.47;;;;;;;5.69;100.00;101990.03;5990778;29;20417;-88
2022/04/29 02:47:06;;;;;;;11.00;3.60;;;;;;;5.75;100.00;101992.38;5993253;29;20525;-88
2022/04/29 02:49:58;;;;;;;5.78;4.10;;;;;;;5.67;100.00;101998.69;5993025;29;20692;-88
2022/04/29 02:53:01;;;;;;;8.40;3.92;;;;;;;5.73;100.00;101988.19;5992446;29;20050;-88
2022/04/29 02:56:04;;;;;;;7.45;3.90;;;;;;;5.62;100.00;101975.72;5999364;29;20403;-88
2022/04/29 02:59:15;;;;;;;11.32;4.55;;;;;;;5.54;100.00;101980.25;5994832;29;20140;-88
2022/04/29 03:02:17;;;;;;;6.68;3.70;;;;;;;5.55;100.00;101969.94;5989835;29;20513;-88
2022/04/29 03:05:19;;;;;;;9.57;3.97;;;;;;;5.50;100.00;101968.44;6009952;29;20527;-88
2022/04/29 03:08:21;;;;;;;10.40;4.30;;;;;;;5.49;100.00;101970.19;6022159;29;20053;-88
2022/04/29 03:11:24;;;;;;;9.82;4.00;;;;;;;5.37;100.00;101957.75;6000827;29;20391;-88
2022/04/29 03:14:26;;;;;;;10.80;5.38;;;;;;;5.31;100.00;101955.38;5999466;29;20056;-88
2022/04/29 03:20:58;;;;;;;15.90;4.75;;;;;;;5.34;100.00;101950.13;6004475;29;20532;-88
2022/04/29 03:24:01;;;;;;;7.95;4.20;;;;;;;5.34;100.00;101945.88;5994058;29;20412;-88
2022/04/29 03:27:03;;;;;;;7.22;4.00;;;;;;;5.33;100.00;101940.78;5991099;29;20050;-88
2022/04/29 03:30:06;;;;;;;9.45;4.30;;;;;;;5.32;100.00;101941.66;6022198;29;20459;-88
2022/04/29 03:33:10;;;;;;;8.60;4.13;;;;;;;5.32;100.00;101945.06;5985867;29;20523;-88
2022/04/29 03:36:17;;;;;;;8.90;4.75;;;;;;;5.28;100.00;101940.91;5999771;29;20050;-88
2022/04/29 03:39:27;;;;;;;9.73;4.28;;;;;;;5.25;100.00;101938.47;6017221;29;20041;-88
2022/04/29 03:42:29;;;;;;;8.75;4.75;;;;;;;5.17;100.00;101940.47;6013862;29;20049;-88
2022/04/29 03:45:32;;;;;;;7.97;4.32;;;;;;;5.16;100.00;101941.34;5997507;29;20140;-88
2022/04/29 03:52:18;;;;;;;11.00;4.20;;;;;;;5.09;100.00;101939.84;6005289;29;20531;-89
2022/04/29 03:55:24;;;;;;;10.60;4.70;;;;;;;5.10;100.00;101938.97;6016352;29;20551;-88
2022/04/29 03:58:26;;;;;;;11.63;6.32;;;;;;;5.13;100.00;101944.00;5999292;29;20057;-88
2022/04/29 04:01:30;;;;;;;8.20;4.70;;;;;;;5.10;100.00;101944.13;5992203;29;20065;-88
2022/04/29 04:04:38;;;;;;;13.43;5.07;;;;;;;5.16;100.00;101951.59;5982133;29;20053;-87
2022/04/29 04:07:40;;;;;;;10.63;5.10;;;;;;;5.13;100.00;101944.84;6008228;29;20137;-88
2022/04/29 04:11:01;;;;;;;12.55;6.03;;;;;;;5.09;100.00;101943.28;6000261;29;20046;-87
2022/04/29 04:14:03;;;;;;;9.57;4.57;;;;;;;5.09;100.00;101937.28;5993715;29;20519;-88
2022/04/29 04:17:07;;;;;;;10.10;5.10;;;;;;;5.07;100.00;101937.34;6013217;29;20053;-88
2022/04/29 04:20:11;;;;;;;13.80;5.22;;;;;;;5.08;100.00;101940.75;6001083;29;20052;-88
2022/04/29 04:23:32;;;;;;;12.52;5.30;;;;;;;5.11;100.00;101944.03;6015152;29;20053;-87
2022/04/29 04:26:34;;;;;;;12.00;5.40;;;;;;;5.16;100.00;101943.91;6011770;29;20045;-87
2022/04/29 04:29:40;;;;;;;8.55;4.50;;;;;;;5.19;100.00;101954.06;5991935;29;20057;-88
2022/04/29 04:32:42;;;;;;;14.15;5.10;;;;;;;5.12;100.00;101943.19;6006501;29;20087;-88
2022/04/29 04:35:44;;;;;;;12.63;4.85;;;;;;;5.07;100.00;101942.50;5994191;29;20528;-88
2022/04/29 04:38:47;;;;;;;12.52;5.43;;;;;;;5.05;100.00;101949.41;6002045;29;20053;-88
2022/04/29 04:41:50;;;;;;;7.95;4.95;;;;;;;5.08;100.00;101946.72;5997894;29;20077;-88
2022/04/29 04:45:00;;;;;;;14.55;5.35;;;;;;;5.14;100.00;101950.81;6008437;29;20072;-88
2022/04/29 04:48:09;;;;;;;12.93;5.68;;;;;;;5.13;100.00;101952.53;6001407;29;20057;-89
2022/04/29 04:51:49;;;;;;;11.68;5.60;;;;;;;5.12;100.00;101947.47;5989978;29;20449;-88
2022/04/29 04:55:06;;;;;;;14.57;5.18;;;;;;;5.18;100.00;101952.41;5975558;29;20054;-88
2022/04/29 04:58:10;;;;;;;10.07;5.45;;;;;;;5.24;100.00;101949.63;5977136;29;20194;-88
2022/04/29 05:01:12;;;;;;;12.15;5.10;;;;;;;5.31;100.00;101955.38;5961460;29;20473;-88
2022/04/29 05:04:21;;;;;;;13.05;5.60;;;;;;;5.39;100.00;101959.38;5980773;29;20062;-91
2022/04/29 05:07:38;;;;;;;15.50;5.93;;;;;;;5.53;100.00;101963.19;5994523;29;20152;-91
2022/04/29 05:10:41;;;;;;;13.02;5.93;;;;;;;5.61;100.00;101966.31;5976499;29;20117;-90
2022/04/29 05:13:43;;;;;;;12.57;5.57;;;;;;;5.71;100.00;101967.66;5980884;29;20049;-90
2022/04/29 05:16:45;;;;;;;13.18;6.65;;;;;;;5.89;100.00;101973.06;5962048;29;20050;-91
2022/04/29 05:20:16;;;;;;;14.75;6.40;;;;;;;5.94;100.00;101973.78;5991692;29;20053;-91
2022/04/29 05:23:20;;;;;;;14.65;6.07;;;;;;;6.18;100.00;101970.28;5991597;29;20048;-91
2022/04/29 05:26:42;;;;;;;15.63;6.38;;;;;;;6.12;100.00;101964.56;6018792;29;20057;-90
2022/04/29 05:30:03;;;;;;;9.52;5.85;;;;;;;6.19;100.00;101973.72;6011411;29;20049;-90
2022/04/29 05:33:31;;;;;;;14.30;6.03;;;;;;;6.33;100.00;101975.75;5965783;29;20145;-90
2022/04/29 05:36:52;;;;;;;13.85;5.63;;;;;;;6.38;100.00;101972.09;5967878;29;20051;-91
2022/04/29 05:43:33;;;;;;;9.82;6.78;;;;;;;6.54;100.00;101979.25;5968248;29;20061;-91
2022/04/29 05:46:35;;;;;;;10.05;6.13;;;;;;;6.64;100.00;101973.69;5948015;29;20394;-91
2022/04/29 05:49:38;;;;;;;13.77;6.00;;;;;;;6.76;100.00;101971.50;5965128;29;20058;-91
2022/04/29 05:52:41;;;;;;;13.50;6.65;;;;;;;6.82;100.00;101971.28;5957244;29;20086;-91
2022/04/29 05:55:44;;;;;;;14.10;6.80;;;;;;;6.86;100.00;101963.38;5971376;29;20518;-91
2022/04/29 05:58:53;;;;;;;13.75;6.32;;;;;;;6.95;100.00;101963.91;5958785;29;20168;-91
2022/04/29 06:02:33;;;;;;;12.13;6.25;;;;;;;7.04;100.00;101959.22;5948462;29;20389;-91
2022/04/29 06:05:45;;;;;;;11.77;6.57;;;;;;;7.10;100.00;101965.84;5950656;29;20074;-91
2022/04/29 06:08:49;;;;;;;11.70;5.85;;;;;;;7.11;100.00;101959.81;5969030;29;20557;-91
2022/04/29 06:11:51;;;;;;;15.80;7.38;;;;;;;7.15;100.00;101961.34;6012820;29;20050;-91
2022/04/29 06:15:03;;;;;;;18.70;6.55;;;;;;;7.19;100.00;101954.34;6015059;29;20053;-91
2022/04/29 06:18:24;;;;;;;14.27;8.20;;;;;;;7.22;100.00;101954.22;6023318;29;20057;-91
2022/04/29 06:21:54;;;;;;;;;;;;;;;7.32;100.00;101958.06;5997064;29;20073;-91
2022/04/29 06:24:57;;;;;;;14.65;7.13;;;;;;;7.46;100.00;101954.91;5971074;29;20310;-90
2022/04/29 06:28:13;;;;;;;15.98;7.30;;;;;;;7.65;100.00;101957.50;5981270;29;20106;-90
2022/04/29 06:31:16;;;;;;;21.27;7.32;;;;;;;7.74;100.00;101952.78;5959102;29;20049;-90
2022/04/29 06:34:37;;;;;;;17.92;7.13;;;;;;;7.97;100.00;101949.22;5960767;29;20058;-90
2022/04/29 06:37:39;;;;;;;16.98;7.90;;;;;;;8.06;100.00;101942.78;5972547;29;20053;-90
2022/04/29 06:41:00;;;;;;;28.65;7.78;;;;;;;8.39;100.00;101947.28;5976597;29;20050;-90
2022/04/29 06:44:13;;;;;;;16.30;7.55;;;;;;;8.65;100.00;101950.44;5978538;29;20488;-90
2022/04/29 06:47:16;;;;;;;16.20;7.82;;;;;;;8.92;100.00;101950.81;5974512;29;20079;-90
2022/04/29 06:50:56;;;;;;;16.02;8.73;;;;;;;9.20;100.00;101958.06;5992685;29;20089;-90
2022/04/29 06:54:16;;;;;;;17.40;8.05;;;;;;;9.35;100.00;101961.63;5968726;29;20046;-90
2022/04/29 06:57:22;;;;;;;20.80;8.50;;;;;;;9.26;100.00;101952.56;5979521;29;20042;-89
2022/04/29 07:00:24;;;;;;;16.92;8.85;;;;;;;9.13;100.00;101951.53;6010184;29;20048;-90
2022/04/29 07:03:27;;;;;;;15.95;8.13;;;;;;;8.98;100.00;101951.34;6008003;29;20050;-90
2022/04/29 07:06:31;;;;;;;22.40;9.60;;;;;;;8.91;100.00;101942.25;5993726;29;20049;-90
2022/04/29 07:09:33;;;;;;;21.05;9.40;;;;;;;8.72;100.00;101941.47;5974706;29;20046;-90
2022/04/29 07:13:14;;;;;;;18.10;8.82;;;;;;;8.61;100.00;101942.81;6009115;29;20042;-90
2022/04/29 07:16:17;;;;;;;19.98;9.30;;;;;;;8.55;100.00;101944.88;6013131;29;20042;-89
2022/04/29 07:19:25;;;;;;;21.52;9.63;;;;;;;8.57;100.00;101948.19;5997405;29;20057;-90
2022/04/29 07:22:49;;;;;;;21.52;9.27;;;;;;;8.54;100.00;101950.94;6010069;29;20144;-90
2022/04/29 07:25:51;;;;;;;22.42;9.85;;;;;;;8.51;100.00;101957.06;5981486;29;20487;-90
2022/04/29 07:28:53;;;;;;;22.80;8.73;;;;;;;8.43;100.00;101959.19;5999893;29;20069;-90
2022/04/29 07:31:59;;;;;;;16.40;8.15;;;;;;;8.31;100.00;101947.66;5994556;29;20053;-90
2022/04/29 07:42:26;;;;;;;21.38;9.63;;;;;;;8.56;100.00;101937.03;5989077;29;20054;-89
2022/04/29 07:45:28;;;;;;;19.15;9.38;;;;;;;8.57;100.00;101935.28;6004850;29;20052;-88
2022/04/29 07:49:03;;;;;;;18.67;8.80;;;;;;;8.65;100.00;101938.34;5988962;29;20832;-90
2022/04/29 07:52:06;;;;;;;24.95;10.38;;;;;;;8.76;100.00;101943.81;5984349;29;20408;-90
2022/04/29 07:55:10;;;;;;;27.95;10.30;;;;;;;8.80;100.00;101942.78;5969167;29;20158;-90
2022/04/29 07:58:12;;;;;;;24.50;9.20;;;;;;;8.84;100.00;101936.56;5977446;29;20057;-90
2022/04/29 08:01:15;;;;;;;22.77;10.80;;;;;;;8.95;100.00;101932.59;5977700;29;20085;-90
2022/04/29 08:04:20;;;;;;;26.13;10.18;;;;;;;9.05;100.00;101928.66;5965652;29;20492;-90
2022/04/29 08:07:22;;;;;;;22.42;9.90;;;;;;;9.16;100.00;101935.84;5975367;29;20046;-91
2022/04/29 08:10:29;;;;;;;24.67;11.15;;;;;;;9.26;100.00;101935.31;5971788;29;20137;-91
2022/04/29 08:13:32;;;;;;;19.90;9.85;;;;;;;9.41;100.00;101938.03;5987543;29;20057;-92
2022/04/29 08:17:24;;;;;;;26.08;10.65;;;;;;;9.59;100.00;101928.47;5914066;29;20892;-91
2022/04/29 08:20:26;;;;;;;21.23;9.77;;;;;;;9.82;100.00;101922.94;5925518;29;20112;-92
2022/04/29 08:23:31;;;;;;;22.83;10.38;;;;;;;9.95;100.00;101923.13;5905949;29;20084;-91
2022/04/29 08:26:33;;;;;;;25.40;9.80;;;;;;;10.06;100.00;101925.13;5921667;29;20043;-91
2022/04/29 08:29:35;;;;;;;23.33;9.77;;;;;;;10.21;100.00;101926.03;5913934;29;20655;-91
2022/04/29 08:32:39;;;;;;;19.92;8.93;;;;;;;10.46;100.00;101926.41;5906737;30;20100;-91
2022/04/29 08:35:46;;;;;;;21.35;10.25;;;;;;;10.69;100.00;101911.31;5908551;29;20240;-91
2022/04/29 08:38:48;;;;;;;19.50;9.55;;;;;;;11.02;92.78;101912.88;5904366;29;20119;-91
2022/04/29 08:41:50;;;;;;;19.30;8.77;;;;;;;11.26;89.71;101910.59;5901335;29;20119;-92
2022/04/29 08:44:57;;;;;;;22.88;8.95;;;;;;;11.44;88.64;101909.47;5911205;30;20593;-92
2022/04/29 08:48:14;;;;;;;19.23;8.70;;;;;;;11.59;91.67;101910.31;5899054;29;20120;-91
2022/04/29 08:51:16;;;;;;;19.02;8.63;;;;;;;11.83;90.31;101907.97;5918079;29;20084;-92
2022/04/29 09:01:04;;;;;;;16.85;8.55;;;;;;;12.45;86.62;101910.97;6006616;29;20053;-92
2022/04/29 09:04:06;;;;;;;19.67;10.13;;;;;;;12.56;89.31;101905.06;6013745;29;20775;-92
2022/04/29 09:07:09;;;;;;;20.05;9.35;;;;;;;12.62;87.56;101909.88;6010451;29;20041;-93
2022/04/29 09:10:12;;;;;;;17.55;8.55;;;;;;;12.64;87.65;101904.56;6013576;29;20053;-91
2022/04/29 09:13:18;;;;;;;21.05;9.82;;;;;;;12.74;86.12;101897.84;6009862;29;20600;-92
2022/04/29 09:16:19;;;;;;;18.58;9.18;;;;;;;12.92;86.75;101896.63;6012693;29;20182;-92
2022/04/29 09:19:33;;;;;;;22.58;9.07;;;;;;;13.08;84.00;101900.78;5996373;29;20057;-92
2022/04/29 09:22:38;;;;;;;24.55;9.18;;;;;;;13.20;83.87;101893.94;6015011;29;20045;-92
2022/04/29 09:25:54;;;;;;;19.85;9.73;;;;;;;13.28;83.05;101896.88;5995673;29;20057;-92
2022/04/29 09:29:41;;;;;;;;;;;;;;;13.46;85.97;101887.78;5968982;29;20713;-92
2022/04/29 09:32:49;;;;;;;17.35;9.60;;;;;;;13.78;81.58;101888.13;5969855;29;20212;-92
2022/04/29 09:36:21;;;;;;;21.55;9.95;;;;;;;14.03;75.20;101882.97;5972739;29;20047;-92
2022/04/29 09:39:34;;;;;;;16.42;8.68;;;;;;;14.26;73.21;101876.94;5971881;29;20540;-92
2022/04/29 09:42:38;;;;;;;17.52;9.63;;;;;;;14.42;72.11;101880.06;5961083;29;20054;-92
2022/04/29 09:45:42;;;;;;;17.92;9.15;;;;;;;14.66;72.11;101876.63;5964909;29;20054;-92
2022/04/29 09:49:08;;;;;;;18.00;9.45;;;;;;;14.90;73.11;101867.91;5952155;29;20058;-93
2022/04/29 09:52:18;;;;;;;22.70;8.57;;;;;;;15.01;70.35;101875.75;5969182;29;20061;-93
2022/04/29 09:55:20;;;;;;;20.58;9.35;;;;;;;15.20;71.22;101875.16;5971035;29;20113;-93
2022/04/29 09:58:23;;;;;;;17.45;9.30;;;;;;;15.38;67.96;101868.53;5957296;29;20579;-93
2022/04/29 10:01:25;;;;;;;17.70;9.05;;;;;;;15.65;66.74;101867.28;6009955;29;20140;-93
2022/04/29 10:04:31;;;;;;;15.02;9.18;;;;;;;15.87;64.92;101867.28;6003939;29;20812;-93
2022/04/29 10:07:35;;;;;;;18.73;9.38;;;;;;;16.06;63.71;101871.84;5988728;29;20060;-93
2022/04/29 10:10:38;;;;;;;19.05;8.93;;;;;;;16.15;61.39;101859.84;6023028;29;20057;-93
2022/04/29 10:13:41;;;;;;;16.35;9.63;;;;;;;16.35;59.92;101858.22;5995129;29;20053;-93
2022/04/29 10:24:13;;;;;;;17.95;9.18;;;;;;;17.33;54.36;101849.13;5945664;29;20636;-93
2022/04/29 10:27:16;;;;;;;20.55;8.60;;;;;;;17.47;52.06;101845.34;5935234;29;20077;-94
2022/04/29 10:30:44;;;;;;;14.32;8.88;;;;;;;17.61;53.73;101850.16;5933196;29;20135;-93
2022/04/29 10:33:46;;;;;;;14.65;8.60;;;;;;;17.79;52.77;101848.56;5944093;29;20070;-93
2022/04/29 10:36:49;;;;;;;15.15;8.80;;;;;;;17.68;53.87;101848.66;5938629;29;20080;-92
2022/04/29 10:40:11;;;;;;;14.32;8.52;;;;;;;17.51;53.64;101846.69;5950503;29;20066;-92
2022/04/29 10:43:20;;;;;;;16.90;9.00;;;;;;;17.64;53.74;101839.44;5916646;29;20058;-93
2022/04/29 10:46:41;;;;;;;17.52;9.07;;;;;;;17.68;53.66;101843.44;5931992;29;20577;-92
2022/04/29 10:50:34;;;;;;;14.35;9.07;;;;;;;17.53;52.34;101844.78;5936588;29;20054;-94
2022/04/29 10:53:57;;;;;;;17.23;9.00;;;;;;;17.83;55.30;101836.84;5939876;29;20248;-93
2022/04/29 10:57:14;;;;;;;16.23;8.77;;;;;;;18.04;50.92;101838.53;5948391;29;20517;-93
2022/04/29 11:00:22;;;;;;;15.60;8.95;;;;;;;18.17;49.12;101838.25;5994087;29;20053;-92
2022/04/29 11:03:38;;;;;;;15.50;7.82;;;;;;;18.22;49.04;101836.88;5997068;29;20328;-91
2022/04/29 11:06:48;;;;;;;15.00;8.25;;;;;;;18.37;48.89;101831.22;6004050;29;20050;-93
2022/04/29 11:09:50;;;;;;;17.02;8.20;;;;;;;18.39;48.64;101827.47;6010351;29;20042;-93
2022/04/29 11:13:08;;;;;;;13.27;8.00;;;;;;;18.22;48.98;101818.53;6003741;29;20441;-92
2022/04/29 11:17:16;;;;;;;14.63;8.10;;;;;;;18.12;48.17;101812.47;5966665;29;20558;-93
2022/04/29 11:20:24;;;;;;;16.02;8.73;;;;;;;17.90;48.61;101804.91;5965204;29;20054;-94
2022/04/29 11:26:53;;;;;;;13.15;8.23;;;;;;;17.74;49.12;101803.63;5963280;29;20093;-93
2022/04/29 11:30:02;;;;;;;15.95;9.05;;;;;;;17.68;48.84;101801.53;5962550;29;20054;-93
2022/04/29 11:33:25;;;;;;;18.23;8.57;;;;;;;17.90;49.04;101791.78;5950781;29;20585;-93
2022/04/29 11:36:27;;;;;;;13.75;7.60;;;;;;;18.26;49.95;101791.09;5966321;29;20156;-93
2022/04/29 11:39:34;;;;;;;19.05;7.55;;;;;;;18.45;48.17;101789.38;5949592;29;20180;-93
2022/04/29 11:42:37;;;;;;;14.98;7.68;;;;;;;18.62;50.04;101793.88;5944459;29;20063;-93
2022/04/29 11:45:40;;;;;;;14.13;8.70;;;;;;;18.75;49.47;101782.25;5968670;29;20054;-93
2022/04/29 11:49:10;;;;;;;14.05;8.13;;;;;;;18.77;45.64;101780.34;5944564;29;20100;-93
2022/04/29 11:52:23;;;;;;;15.38;7.90;;;;;;;18.94;47.08;101776.97;5970758;29;20387;-93
2022/04/29 11:55:27;;;;;;;15.48;8.00;;;;;;;19.09;46.79;101767.63;6009936;29;20539;-93
2022/04/29 11:58:30;;;;;;;13.70;7.97;;;;;;;19.47;44.45;101764.91;5994648;29;20053;-93
2022/04/29 12:01:32;;;;;;;18.67;8.50;;;;;;;19.73;44.44;101762.41;6002423;29;20046;-94
2022/04/29 12:04:35;;;;;;;11.23;8.15;;;;;;;20.12;45.46;101762.88;5994067;29;20169;-94
2022/04/29 12:07:45;;;;;;;13.57;7.65;;;;;;;20.52;42.29;101756.22;6002244;29;20528;-94
2022/04/29 12:10:55;;;;;;;11.25;8.27;;;;;;;20.59;41.61;101759.06;5992672;29;20727;-94
2022/04/29 12:14:16;;;;;;;15.27;8.13;;;;;;;20.78;43.32;101752.75;5995592;29;20050;-94
2022/04/29 12:17:20;;;;;;;13.85;7.50;;;;;;;20.84;41.91;101752.09;6006517;29;20202;-93
2022/04/29 12:20:22;;;;;;;13.30;7.53;;;;;;;20.80;39.89;101750.78;6013052;29;20053;-94
2022/04/29 12:23:24;;;;;;;11.00;7.82;;;;;;;20.89;40.67;101741.91;6004778;29;20045;-93
2022/04/29 12:26:26;;;;;;;14.98;7.70;;;;;;;21.00;40.78;101739.00;5989514;29;20089;-94
2022/04/29 12:29:35;;;;;;;12.40;7.95;;;;;;;20.88;41.53;101740.28;6006145;29;20772;-93
2022/04/29 12:36:12;;;;;;;11.07;7.95;;;;;;;20.76;44.03;101739.75;6010959;29;20483;-94
2022/04/29 12:39:15;;;;;;;12.25;7.32;;;;;;;20.76;41.74;101736.28;5988311;29;20061;-93
2022/04/29 12:42:18;;;;;;;16.50;8.35;;;;;;;20.51;40.32;101743.22;6003957;29;20050;-93
2022/04/29 12:45:29;;;;;;;15.00;7.70;;;;;;;19.98;41.67;101737.16;5987971;29;20054;-93
2022/04/29 12:48:55;;;;;;;12.38;7.32;;;;;;;19.78;41.89;101733.88;6005351;29;20057;-94
2022/04/29 12:51:59;;;;;;;10.30;7.05;;;;;;;19.64;41.14;101729.94;6014916;29;20046;-93
2022/04/29 12:55:15;;;;;;;11.48;7.18;;;;;;;19.53;41.47;101719.66;6010294;29;20104;-93
2022/04/29 12:58:19;;;;;;;11.90;7.10;;;;;;;19.56;44.53;101729.88;6008170;29;20046;-94
2022/04/29 13:01:21;;;;;;;11.95;6.68;;;;;;;19.63;44.20;101730.91;6008490;29;20415;-91
2022/04/29 13:04:28;;;;;;;12.82;6.38;;;;;;;19.63;44.88;101717.78;6016717;29;20408;-93
2022/04/29 13:07:41;;;;;;;13.07;7.07;;;;;;;19.66;44.15;101722.72;6013930;29;20049;-93
2022/04/29 13:10:42;;;;;;;10.90;6.22;;;;;;;19.75;45.12;101716.59;6009918;29;20048;-94
2022/04/29 13:13:45;;;;;;;13.23;7.10;;;;;;;19.95;44.38;101716.41;5996754;29;20546;-92
2022/04/29 13:16:48;;;;;;;12.07;7.20;;;;;;;19.60;43.26;101712.81;5989294;29;20045;-92
2022/04/29 13:19:51;;;;;;;13.80;6.82;;;;;;;18.60;45.83;101701.41;5993624;29;20041;-94
2022/04/29 13:22:53;;;;;;;11.95;6.15;;;;;;;18.29;48.25;101704.28;6004148;29;20045;-92
2022/04/29 13:25:57;;;;;;;12.13;6.72;;;;;;;18.37;46.78;101698.31;5994233;29;20053;-94
2022/04/29 13:28:59;;;;;;;10.27;6.70;;;;;;;18.44;47.69;101694.16;6008962;29;20050;-94
2022/04/29 13:32:02;;;;;;;15.60;6.25;;;;;;;18.47;47.78;101708.78;6006679;29;20045;-95
2022/04/29 13:35:06;;;;;;;10.65;6.18;;;;;;;18.29;47.46;101699.06;6012287;29;20037;-94
2022/04/29 13:38:10;;;;;;;11.82;6.72;;;;;;;18.21;48.63;101703.34;6003452;29;20208;-93
2022/04/29 13:41:11;;;;;;;13.27;6.40;;;;;;;18.32;49.97;101694.50;6006107;29;20521;-93
2022/04/29 13:44:14;;;;;;;13.93;6.07;;;;;;;17.92;47.91;101696.38;6005494;29;20055;-93
2022/04/29 13:47:16;;;;;;;9.95;5.68;;;;;;;17.72;49.27;101687.69;6010852;29;20048;-92
2022/04/29 13:50:18;;;;;;;10.75;6.32;;;;;;;17.73;48.95;101671.00;6013211;29;20510;-93
2022/04/29 13:53:21;;;;;;;10.77;6.35;;;;;;;17.95;49.17;101687.41;6010092;29;20432;-92
2022/04/29 13:56:22;;;;;;;15.15;6.57;;;;;;;17.91;48.53;101675.56;6009296;29;20046;-92
2022/04/29 13:59:25;;;;;;;13.55;6.22;;;;;;;17.62;47.56;101681.63;5999305;29;20048;-92
2022/04/29 14:02:29;;;;;;;10.95;6.22;;;;;;;17.20;49.42;101672.25;6009531;29;20042;-92
2022/04/29 14:05:32;;;;;;;9.85;6.38;;;;;;;16.97;50.39;101671.69;6018703;29;20609;-91
2022/04/29 14:08:34;;;;;;;14.48;6.43;;;;;;;16.95;50.29;101678.00;6010646;29;20046;-93
2022/04/29 14:11:37;;;;;;;12.77;6.28;;;;;;;16.81;51.30;101673.16;6006660;29;20052;-92
2022/04/29 14:14:40;;;;;;;9.93;6.07;;;;;;;16.72;51.33;101670.34;6007105;29;20511;-92
2022/04/29 14:17:44;;;;;;;11.23;6.50;;;;;;;16.78;50.85;101676.84;6014920;29;20703;-93
2022/04/29 14:20:46;;;;;;;12.80;6.38;;;;;;;16.60;52.00;101667.97;6013703;29;20427;-93
2022/04/29 14:23:48;;;;;;;8.55;5.63;;;;;;;16.71;50.40;101668.66;6011000;29;20112;-93
2022/04/29 14:26:50;;;;;;;9.38;5.90;;;;;;;16.76;50.83;101665.66;6004708;29;20052;-95
2022/04/29 14:29:52;;;;;;;10.57;5.90;;;;;;;16.75;49.50;101669.25;6004308;29;20476;-93
2022/04/29 14:32:56;;;;;;;11.55;6.20;;;;;;;16.46;50.73;101669.97;5989311;29;20053;-95
2022/04/29 14:35:58;;;;;;;10.40;5.80;;;;;;;16.24;51.70;101642.22;5992511;29;20046;-93
2022/04/29 14:39:00;;;;;;;19.08;5.57;;;;;;;16.48;51.68;101648.94;6003531;29;20219;-92
2022/04/29 14:42:04;;;;;;;9.82;4.95;;;;;;;16.58;49.78;101644.56;6004529;29;20045;-88
2022/04/29 14:45:07;;;;;;;15.23;5.53;;;;;;;16.54;50.45;101640.56;5994183;29;20054;-87
2022/04/29 14:48:10;;;;;;;12.00;5.70;;;;;;;16.56;47.95;101642.06;6007860;29;20104;-87
2022/04/29 14:51:12;;;;;;;7.90;4.10;;;;;;;16.65;48.13;101642.25;5997727;29;20073;-88
2022/04/29 14:54:14;;;;;;;8.20;4.93;;;;;;;17.00;48.52;101637.38;6007128;29;20436;-87
2022/04/29 14:57:16;;;;;;;9.52;4.15;;;;;;;17.34;46.00;101644.88;6010148;29;20558;-89
2022/04/29 15:00:18;;;;;;;6.40;3.97;;;;;;;17.57;44.56;101639.34;6006034;29;20049;-88
2022/04/29 15:03:20;;;;;;;7.40;3.70;;;;;;;17.96;44.17;101639.28;6019500;29;20045;-87